Time;durP1;ratioP1;P1;durP2;ratioP2;P2;SDS_P1;SDS_P2;PMS_P1;PMS_P2;Temp;Humidity;BMP_temperature;BMP_pressure;BME280_temperature;BME280_humidity;BME280_pressure;Samples;Min_cycle;Max_cycle;Signal;HPM_P1;HPM_P2
2023/01/21 00:02:09;;;;;;;12.00;6.57;;;-5.90;99.90;;;;;;5113398;28;20197;-84
2023/01/21 00:04:36;;;;;;;12.07;7.00;;;-5.90;99.90;;;;;;5113545;28;20489;-84
2023/01/21 00:07:03;;;;;;;12.77;6.57;;;-5.90;99.90;;;;;;5112294;28;20172;-85
2023/01/21 00:09:28;;;;;;;13.47;6.93;;;-6.00;99.90;;;;;;5112982;28;20433;-84
2023/01/21 00:11:54;;;;;;;13.43;6.40;;;-6.10;99.90;;;;;;5112730;28;20422;-84
2023/01/21 00:14:19;;;;;;;13.83;6.57;;;-6.20;99.90;;;;;;5112920;28;20184;-84
2023/01/21 00:16:45;;;;;;;13.40;6.30;;;-6.20;99.90;;;;;;5111777;28;20173;-83
2023/01/21 00:19:11;;;;;;;12.37;6.77;;;-6.10;99.90;;;;;;5112474;28;20201;-85
2023/01/21 00:21:36;;;;;;;11.70;6.93;;;-6.20;99.90;;;;;;5111814;28;20169;-84
2023/01/21 00:24:02;;;;;;;13.07;6.43;;;-6.30;99.90;;;;;;5112969;28;20197;-84
2023/01/21 00:26:27;;;;;;;12.03;6.70;;;-6.30;99.90;;;;;;5111743;28;20176;-84
2023/01/21 00:28:53;;;;;;;11.33;6.17;;;-6.30;99.90;;;;;;5112583;28;20210;-84
2023/01/21 00:31:19;;;;;;;11.00;6.27;;;-6.30;99.90;;;;;;5112717;28;20185;-84
2023/01/21 00:33:45;;;;;;;13.50;6.67;;;-6.30;99.90;;;;;;5112686;28;20249;-84
2023/01/21 00:36:13;;;;;;;11.70;6.33;;;-6.30;99.90;;;;;;5112881;28;20430;-84
2023/01/21 00:38:39;;;;;;;12.47;6.33;;;-6.40;99.90;;;;;;5111289;28;20519;-84
2023/01/21 00:41:08;;;;;;;13.57;6.70;;;-6.40;99.90;;;;;;5111357;28;20501;-84
2023/01/21 00:43:35;;;;;;;12.77;6.70;;;-6.20;99.90;;;;;;5111380;28;20174;-84
2023/01/21 00:46:01;;;;;;;10.90;5.97;;;-6.10;99.90;;;;;;5112661;28;20419;-84
2023/01/21 00:48:27;;;;;;;12.77;6.60;;;-6.10;99.90;;;;;;5111189;28;20435;-84
2023/01/21 00:50:54;;;;;;;12.47;6.53;;;-6.20;99.90;;;;;;5112463;28;20221;-84
2023/01/21 00:53:21;;;;;;;12.77;6.33;;;-6.30;99.90;;;;;;5111486;28;20463;-85
2023/01/21 00:55:47;;;;;;;12.90;6.50;;;-6.30;99.90;;;;;;5111558;28;20880;-84
2023/01/21 00:58:13;;;;;;;13.87;6.53;;;-6.30;99.90;;;;;;5111236;28;20489;-82
2023/01/21 01:00:38;;;;;;;12.70;6.40;;;-6.30;99.90;;;;;;5112471;28;20161;-85
2023/01/21 01:03:04;;;;;;;11.97;6.10;;;-6.30;99.90;;;;;;5111298;28;20272;-84
2023/01/21 01:05:29;;;;;;;9.87;4.97;;;-6.50;99.90;;;;;;5114429;28;20172;-84
2023/01/21 01:07:55;;;;;;;9.63;5.40;;;-6.60;99.90;;;;;;5116217;28;20195;-83
2023/01/21 01:10:21;;;;;;;11.17;5.83;;;-6.80;99.90;;;;;;5115192;28;20176;-85
2023/01/21 01:12:46;;;;;;;11.03;5.57;;;-7.00;99.90;;;;;;5114962;28;20176;-82
2023/01/21 01:15:12;;;;;;;10.93;6.10;;;-7.10;99.90;;;;;;5116452;28;20173;-84
2023/01/21 01:17:37;;;;;;;12.57;6.07;;;-7.20;99.90;;;;;;5114801;28;20204;-84
2023/01/21 01:20:03;;;;;;;12.30;5.70;;;-7.20;99.90;;;;;;5116170;28;20729;-83
2023/01/21 01:22:29;;;;;;;8.57;4.80;;;-7.20;99.90;;;;;;5115056;28;20195;-84
2023/01/21 01:24:54;;;;;;;8.70;5.27;;;-7.20;99.90;;;;;;5115015;28;20849;-83
2023/01/21 01:27:20;;;;;;;10.23;4.80;;;-7.20;99.90;;;;;;5114772;28;20555;-84
2023/01/21 01:29:47;;;;;;;10.27;4.83;;;-7.30;99.90;;;;;;5114380;28;20215;-85
2023/01/21 01:32:12;;;;;;;10.50;4.70;;;-7.30;99.90;;;;;;5114650;28;20180;-83
2023/01/21 01:34:38;;;;;;;11.20;5.60;;;-7.40;99.90;;;;;;5114438;28;20459;-84
2023/01/21 01:37:03;;;;;;;8.57;4.70;;;-7.40;99.90;;;;;;5115825;27;20191;-83
2023/01/21 01:39:30;;;;;;;10.40;5.47;;;-7.30;99.90;;;;;;5114363;28;20283;-83
2023/01/21 01:41:56;;;;;;;10.17;5.70;;;-7.40;99.90;;;;;;5114398;28;20172;-83
2023/01/21 01:44:57;;;;;;;11.37;6.30;;;-7.40;99.90;;;;;;5114328;28;20505;-84
2023/01/21 01:47:28;;;;;;;13.37;6.80;;;-7.50;99.90;;;;;;5115627;28;20413;-84
2023/01/21 01:49:54;;;;;;;19.87;7.43;;;-7.60;99.90;;;;;;5113904;28;20453;-83
2023/01/21 01:52:20;;;;;;;16.20;7.47;;;-7.60;99.90;;;;;;5114374;28;20410;-83
2023/01/21 01:54:50;;;;;;;13.73;6.20;;;-7.60;99.90;;;;;;5114164;28;20182;-84
2023/01/21 01:57:20;;;;;;;14.87;6.50;;;-7.50;99.90;;;;;;5115193;28;20417;-84
2023/01/21 01:59:47;;;;;;;15.83;7.77;;;-7.40;99.90;;;;;;5113936;28;20482;-84
2023/01/21 02:02:18;;;;;;;14.10;7.13;;;-7.30;99.90;;;;;;5115254;28;20498;-85
2023/01/21 02:04:49;;;;;;;14.73;6.70;;;-7.30;99.90;;;;;;5114144;28;20523;-84
2023/01/21 02:07:18;;;;;;;14.10;7.40;;;-7.30;99.90;;;;;;5114107;28;20430;-84
2023/01/21 02:09:43;;;;;;;11.33;5.73;;;-7.20;99.90;;;;;;5115004;28;20438;-84
2023/01/21 02:12:09;;;;;;;12.07;6.03;;;-7.20;99.90;;;;;;5114248;28;20421;-83
2023/01/21 02:14:41;;;;;;;10.93;6.07;;;-7.10;99.90;;;;;;5114164;28;20172;-83
2023/01/21 02:17:38;;;;;;;11.23;6.23;;;-7.00;99.90;;;;;;5113929;28;20264;-83
2023/01/21 02:20:28;;;;;;;12.43;6.50;;;-7.00;99.90;;;;;;5113734;28;20437;-83
2023/01/21 02:23:22;;;;;;;12.87;6.17;;;-7.00;99.90;;;;;;5115282;28;20435;-83
2023/01/21 02:26:16;;;;;;;11.57;6.23;;;-6.90;99.90;;;;;;5115272;28;20942;-83
2023/01/21 02:29:13;;;;;;;10.90;6.17;;;-6.90;99.90;;;;;;5115035;28;20433;-83
2023/01/21 02:32:05;;;;;;;11.07;6.03;;;-6.90;99.90;;;;;;5116412;28;20934;-83
2023/01/21 02:34:55;;;;;;;13.40;6.83;;;-6.90;99.90;;;;;;5114984;28;20417;-83
2023/01/21 02:37:53;;;;;;;13.77;6.90;;;-6.70;99.90;;;;;;5113435;28;20920;-83
2023/01/21 02:40:39;;;;;;;20.50;8.33;;;-6.70;99.90;;;;;;5113253;28;20437;-85
2023/01/21 02:43:28;;;;;;;16.73;8.63;;;-6.80;99.90;;;;;;5114550;28;20411;-83
2023/01/21 02:46:27;;;;;;;16.40;7.23;;;-6.80;99.90;;;;;;5113288;28;20414;-83
2023/01/21 02:48:57;;;;;;;16.60;7.83;;;-6.70;99.90;;;;;;5097665;28;20490;-83
2023/01/21 02:51:23;;;;;;;15.40;6.93;;;-6.70;99.90;;;;;;5113186;28;20824;-83
2023/01/21 02:53:49;;;;;;;17.13;8.10;;;-6.60;99.90;;;;;;5114581;28;21019;-83
2023/01/21 02:56:25;;;;;;;13.17;6.97;;;-6.60;99.90;;;;;;5113075;28;20172;-83
2023/01/21 02:59:02;;;;;;;15.23;7.13;;;-6.70;99.90;;;;;;5113280;28;20211;-83
2023/01/21 03:01:38;;;;;;;12.00;6.20;;;-6.70;99.90;;;;;;5114283;28;20420;-83
2023/01/21 03:04:26;;;;;;;15.83;8.13;;;-6.70;99.90;;;;;;5114275;28;20437;-83
2023/01/21 03:07:13;;;;;;;20.50;8.97;;;-6.60;99.90;;;;;;5112946;28;20463;-83
2023/01/21 03:09:39;;;;;;;27.93;8.50;;;-6.60;99.90;;;;;;5114161;28;20460;-83
2023/01/21 03:12:08;;;;;;;26.20;9.90;;;-6.60;99.90;;;;;;5113022;28;20849;-83
2023/01/21 03:17:36;;;;;;;24.30;9.50;;;-6.80;99.90;;;;;;5114118;28;20467;-83
2023/01/21 03:20:21;;;;;;;23.67;9.23;;;-6.90;99.90;;;;;;5112627;28;20442;-84
2023/01/21 03:22:47;;;;;;;24.13;10.03;;;-6.80;99.90;;;;;;5113834;28;20414;-83
2023/01/21 03:25:16;;;;;;;29.07;11.23;;;-6.70;99.90;;;;;;5112828;28;20417;-83
2023/01/21 03:27:45;;;;;;;29.23;11.73;;;-6.70;99.90;;;;;;5112277;28;20474;-83
2023/01/21 03:30:18;;;;;;;25.77;10.40;;;-6.50;99.90;;;;;;5113723;28;20926;-84
2023/01/21 03:32:48;;;;;;;22.37;10.03;;;-6.40;99.90;;;;;;5113888;28;20421;-83
2023/01/21 03:35:20;;;;;;;24.47;10.57;;;-6.30;99.90;;;;;;5112681;28;20459;-83
2023/01/21 03:37:52;;;;;;;28.37;10.67;;;-6.20;99.90;;;;;;5112576;28;20449;-83
2023/01/21 03:40:24;;;;;;;24.07;10.33;;;-6.20;99.90;;;;;;5112394;28;20412;-83
2023/01/21 03:42:52;;;;;;;27.77;10.60;;;-6.30;99.90;;;;;;5113897;28;20771;-83
2023/01/21 03:45:38;;;;;;;28.00;11.30;;;-6.20;99.90;;;;;;5113328;28;20412;-83
2023/01/21 03:48:20;;;;;;;27.00;11.20;;;-6.20;99.90;;;;;;5112355;28;20457;-83
2023/01/21 03:50:55;;;;;;;24.97;10.67;;;-6.20;99.90;;;;;;5112163;28;20462;-83
2023/01/21 03:53:21;;;;;;;23.67;9.97;;;-6.10;99.90;;;;;;5113820;28;20402;-83
2023/01/21 03:55:50;;;;;;;24.87;10.47;;;-6.00;99.90;;;;;;5113172;28;20417;-83
2023/01/21 03:58:15;;;;;;;23.80;9.77;;;-6.00;99.90;;;;;;5113485;28;20303;-83
2023/01/21 04:00:41;;;;;;;27.20;10.87;;;-5.90;99.90;;;;;;5112250;28;20888;-83
2023/01/21 04:03:06;;;;;;;25.03;10.67;;;-5.80;99.90;;;;;;5113378;28;20180;-83
2023/01/21 04:05:34;;;;;;;24.77;11.00;;;-5.70;99.90;;;;;;5113298;28;20668;-83
2023/01/21 04:07:59;;;;;;;26.27;10.53;;;-5.60;99.90;;;;;;5113332;28;20217;-83
2023/01/21 04:10:25;;;;;;;26.53;11.03;;;-5.60;99.90;;;;;;5111882;28;20410;-83
2023/01/21 04:12:50;;;;;;;23.73;10.60;;;-5.60;99.90;;;;;;5111937;28;20225;-83
2023/01/21 04:15:16;;;;;;;22.87;10.00;;;-5.60;99.90;;;;;;5113147;28;20180;-83
2023/01/21 04:17:41;;;;;;;22.53;9.50;;;-5.50;99.90;;;;;;5111887;28;20238;-83
2023/01/21 04:20:08;;;;;;;18.97;9.43;;;-5.40;99.90;;;;;;5112883;28;20195;-83
2023/01/21 04:22:33;;;;;;;22.20;9.90;;;-5.20;99.90;;;;;;5112752;28;20184;-82
2023/01/21 04:24:59;;;;;;;18.83;8.77;;;-5.10;99.90;;;;;;5112666;28;20411;-83
2023/01/21 04:27:25;;;;;;;21.40;10.13;;;-5.10;99.90;;;;;;5112885;28;20569;-85
2023/01/21 04:29:50;;;;;;;22.77;9.73;;;-5.10;99.90;;;;;;5113165;28;20725;-83
2023/01/21 04:32:16;;;;;;;21.30;10.40;;;-5.00;99.90;;;;;;5111990;28;20181;-83
2023/01/21 04:34:41;;;;;;;21.73;10.50;;;-4.90;99.90;;;;;;5113027;28;20176;-83
2023/01/21 04:37:07;;;;;;;22.17;10.73;;;-4.80;99.90;;;;;;5111520;28;20164;-83
2023/01/21 04:39:32;;;;;;;22.50;10.17;;;-4.80;99.90;;;;;;5113914;28;20203;-83
2023/01/21 04:41:58;;;;;;;26.47;10.63;;;-4.70;99.90;;;;;;5116876;28;20161;-83
2023/01/21 04:44:23;;;;;;;26.33;11.47;;;-4.60;99.90;;;;;;5116043;28;20177;-84
2023/01/21 04:46:49;;;;;;;25.77;11.70;;;-4.50;99.90;;;;;;5115767;28;20269;-83
2023/01/21 04:49:14;;;;;;;25.90;11.43;;;-4.60;99.90;;;;;;5115408;28;20688;-84
2023/01/21 04:51:40;;;;;;;23.80;10.27;;;-4.60;99.90;;;;;;5115385;28;20177;-84
2023/01/21 04:54:05;;;;;;;22.97;9.83;;;-4.80;99.90;;;;;;5115471;28;20179;-83
2023/01/21 04:56:31;;;;;;;22.70;10.27;;;-4.90;99.90;;;;;;5117030;28;20197;-84
2023/01/21 04:58:57;;;;;;;26.47;10.77;;;-5.00;99.90;;;;;;5117206;28;20753;-83
2023/01/21 05:01:22;;;;;;;24.47;11.10;;;-5.00;99.90;;;;;;5116389;28;20199;-84
2023/01/21 05:03:48;;;;;;;24.13;11.23;;;-5.10;99.90;;;;;;5115335;28;20172;-82
2023/01/21 05:06:13;;;;;;;24.20;11.17;;;-5.00;99.90;;;;;;5116402;28;20177;-84
2023/01/21 05:08:39;;;;;;;24.73;12.03;;;-4.90;99.90;;;;;;5116765;28;20221;-83
2023/01/21 05:11:07;;;;;;;24.43;11.03;;;-4.70;99.90;;;;;;5115144;28;20180;-85
2023/01/21 05:13:32;;;;;;;22.63;11.23;;;-4.60;99.90;;;;;;5115336;28;20533;-83
2023/01/21 05:16:07;;;;;;;23.67;11.67;;;-4.50;99.90;;;;;;5116565;28;20447;-83
2023/01/21 05:18:32;;;;;;;24.77;11.77;;;-4.50;99.90;;;;;;5116162;28;20208;-83
2023/01/21 05:20:58;;;;;;;26.47;12.03;;;-4.50;99.90;;;;;;5116368;28;20420;-84
2023/01/21 05:23:23;;;;;;;28.27;11.97;;;-4.40;99.90;;;;;;5114991;28;20169;-84
2023/01/21 05:25:49;;;;;;;27.47;12.30;;;-4.30;99.90;;;;;;5115048;28;20218;-85
2023/01/21 05:28:15;;;;;;;30.03;12.93;;;-4.30;99.90;;;;;;5115901;28;20186;-83
2023/01/21 05:30:40;;;;;;;32.27;13.47;;;-4.20;99.90;;;;;;5114610;28;20174;-84
2023/01/21 05:33:06;;;;;;;28.97;13.17;;;-4.20;99.90;;;;;;5114751;28;20556;-84
2023/01/21 05:35:34;;;;;;;27.87;12.10;;;-4.10;99.90;;;;;;5116464;28;20173;-84
2023/01/21 05:38:00;;;;;;;26.40;12.13;;;-4.10;99.90;;;;;;5114616;28;20682;-84
2023/01/21 05:40:25;;;;;;;24.53;11.30;;;-4.00;99.90;;;;;;5114785;28;20420;-83
2023/01/21 05:42:51;;;;;;;28.40;12.87;;;-4.10;99.90;;;;;;5114731;28;20177;-83
2023/01/21 05:45:16;;;;;;;25.97;12.03;;;-4.00;99.90;;;;;;5114732;28;20181;-84
2023/01/21 05:47:42;;;;;;;24.87;12.03;;;-4.00;99.90;;;;;;5114210;28;20188;-83
2023/01/21 05:50:08;;;;;;;24.67;11.73;;;-4.10;99.90;;;;;;5113926;28;20661;-84
2023/01/21 05:52:34;;;;;;;24.77;12.13;;;-4.00;99.90;;;;;;5114183;28;20206;-85
2023/01/21 05:55:00;;;;;;;26.33;12.50;;;-4.00;99.90;;;;;;5115553;27;20419;-83
2023/01/21 05:57:26;;;;;;;26.80;13.03;;;-4.00;99.90;;;;;;5114091;28;20178;-83
2023/01/21 05:59:51;;;;;;;31.37;13.33;;;-3.80;99.90;;;;;;5114198;28;20187;-84
2023/01/21 06:02:17;;;;;;;25.50;12.07;;;-3.70;99.90;;;;;;5114072;28;20253;-84
2023/01/21 06:04:42;;;;;;;24.00;12.63;;;-3.60;99.90;;;;;;5114174;28;20707;-84
2023/01/21 06:07:08;;;;;;;28.90;14.43;;;-3.60;99.90;;;;;;5114226;28;20261;-83
2023/01/21 06:09:33;;;;;;;25.13;12.67;;;-3.50;99.90;;;;;;5113874;28;20235;-88
2023/01/21 06:11:59;;;;;;;28.77;13.30;;;-3.50;99.90;;;;;;5113552;28;20176;-88
2023/01/21 06:14:25;;;;;;;28.03;13.87;;;-3.40;99.90;;;;;;5114925;28;20527;-88
2023/01/21 06:16:50;;;;;;;28.50;12.80;;;-3.40;99.90;;;;;;5113363;28;20179;-88
2023/01/21 06:19:17;;;;;;;28.20;13.53;;;-3.40;99.90;;;;;;5114550;28;20211;-87
2023/01/21 06:21:42;;;;;;;30.50;13.93;;;-3.30;99.90;;;;;;5114568;28;20175;-88
2023/01/21 06:24:08;;;;;;;27.50;13.17;;;-3.30;99.90;;;;;;5113415;28;20267;-88
2023/01/21 06:26:33;;;;;;;28.37;13.60;;;-3.20;99.90;;;;;;5114595;28;20179;-88
2023/01/21 06:28:59;;;;;;;30.97;14.60;;;-3.10;99.90;;;;;;5113192;28;20194;-88
2023/01/21 06:31:25;;;;;;;29.50;13.10;;;-3.10;99.90;;;;;;5112871;28;20197;-88
2023/01/21 06:33:50;;;;;;;30.07;13.30;;;-3.10;99.90;;;;;;5103875;28;20168;-87
2023/01/21 06:36:16;;;;;;;29.03;13.33;;;-3.10;99.90;;;;;;5114196;28;20179;-89
2023/01/21 06:38:41;;;;;;;27.37;12.80;;;-3.00;99.90;;;;;;5113982;28;20210;-89
2023/01/21 06:41:07;;;;;;;26.43;12.43;;;-3.00;99.90;;;;;;5112927;28;20203;-89
2023/01/21 06:43:33;;;;;;;20.27;10.33;;;-3.00;99.90;;;;;;5112882;28;20172;-88
2023/01/21 06:45:58;;;;;;;32.47;15.17;;;-2.80;99.90;;;;;;5112780;28;20182;-86
2023/01/21 06:48:24;;;;;;;33.70;15.00;;;-2.20;99.90;;;;;;5112953;27;20199;-86
2023/01/21 06:50:49;;;;;;;29.33;13.63;;;-1.60;99.90;;;;;;5113628;28;20171;-87
2023/01/21 06:53:15;;;;;;;25.97;13.93;;;-1.20;99.90;;;;;;5112588;28;20175;-88
2023/01/21 06:55:41;;;;;;;24.10;14.83;;;-1.00;99.90;;;;;;5112889;28;20172;-84
2023/01/21 06:58:06;;;;;;;24.47;13.77;;;-1.40;99.90;;;;;;5113933;28;20214;-87
2023/01/21 07:00:32;;;;;;;22.47;13.07;;;-1.80;99.90;;;;;;5113808;28;20222;-86
2023/01/21 07:02:59;;;;;;;26.27;13.67;;;-2.20;99.90;;;;;;5113100;28;20172;-87
2023/01/21 07:05:25;;;;;;;22.37;11.83;;;-2.40;99.90;;;;;;5112441;28;20187;-87
2023/01/21 07:07:54;;;;;;;20.10;10.97;;;-2.50;99.90;;;;;;5113617;28;20641;-86
2023/01/21 07:10:20;;;;;;;28.03;15.17;;;-2.60;99.90;;;;;;5113890;28;20212;-86
2023/01/21 07:12:46;;;;;;;19.27;10.47;;;-2.60;99.90;;;;;;5112449;28;20229;-86
2023/01/21 07:15:11;;;;;;;22.43;10.80;;;-2.50;99.90;;;;;;5112584;28;20171;-87
2023/01/21 07:17:37;;;;;;;22.30;11.87;;;-2.50;99.90;;;;;;5112654;28;20215;-86
2023/01/21 07:20:03;;;;;;;21.47;12.30;;;-2.50;99.90;;;;;;5113442;28;20558;-87
2023/01/21 07:22:29;;;;;;;24.47;12.70;;;-2.50;99.90;;;;;;5112410;28;20171;-86
2023/01/21 07:24:55;;;;;;;19.33;10.73;;;-2.50;99.90;;;;;;5112267;28;20179;-85
2023/01/21 07:27:20;;;;;;;22.50;10.47;;;-2.40;99.90;;;;;;5112365;28;20180;-87
2023/01/21 07:29:46;;;;;;;100.83;44.17;;;-2.40;99.90;;;;;;5111891;28;20196;-85
2023/01/21 07:32:11;;;;;;;26.67;13.57;;;-2.40;99.90;;;;;;5112155;28;20167;-86
2023/01/21 07:34:37;;;;;;;23.47;11.27;;;-2.30;99.90;;;;;;5113405;28;20206;-85
2023/01/21 07:37:02;;;;;;;23.00;12.50;;;-2.30;99.90;;;;;;5112096;28;20180;-88
2023/01/21 07:39:28;;;;;;;21.73;11.13;;;-2.40;99.90;;;;;;5113177;28;20207;-87
2023/01/21 07:41:53;;;;;;;23.17;11.83;;;-2.30;99.90;;;;;;5108916;28;20653;-85
2023/01/21 07:44:19;;;;;;;19.80;10.80;;;-2.30;99.90;;;;;;5109662;28;20547;-85
2023/01/21 07:46:44;;;;;;;20.77;10.83;;;-2.30;99.90;;;;;;5113380;28;20195;-85
2023/01/21 07:49:15;;;;;;;18.37;10.43;;;-2.20;99.90;;;;;;5113389;28;20247;-83
2023/01/21 07:51:42;;;;;;;20.13;10.93;;;-2.20;99.90;;;;;;5113234;28;20693;-85
2023/01/21 07:54:09;;;;;;;22.93;10.77;;;-2.20;99.90;;;;;;5113731;28;20179;-84
2023/01/21 07:56:35;;;;;;;20.17;10.80;;;-2.20;99.90;;;;;;5112202;28;20179;-85
2023/01/21 07:59:00;;;;;;;16.80;9.93;;;-2.20;99.90;;;;;;5112365;28;20272;-84
2023/01/21 08:01:29;;;;;;;18.33;9.43;;;-2.10;99.90;;;;;;5112773;28;20163;-84
2023/01/21 08:03:55;;;;;;;17.27;9.23;;;-2.10;99.90;;;;;;5111498;28;20171;-84
2023/01/21 08:06:21;;;;;;;22.90;11.33;;;-2.00;99.90;;;;;;5097024;28;20176;-85
2023/01/21 08:08:47;;;;;;;19.77;11.27;;;-2.00;99.90;;;;;;5110309;28;20196;-83
2023/01/21 08:11:12;;;;;;;23.07;11.63;;;-2.00;99.90;;;;;;5110729;28;20175;-86
2023/01/21 08:13:38;;;;;;;33.37;22.77;;;-1.90;99.90;;;;;;5110731;28;20167;-86
2023/01/21 08:16:04;;;;;;;20.70;10.93;;;-1.90;99.90;;;;;;5110580;28;20201;-85
2023/01/21 08:18:30;;;;;;;20.40;9.17;;;-1.90;99.90;;;;;;5110687;28;20211;-85
2023/01/21 08:20:57;;;;;;;29.67;17.47;;;-1.80;99.90;;;;;;5111361;28;20198;-84
2023/01/21 08:23:22;;;;;;;18.40;9.70;;;-1.70;99.90;;;;;;5112942;28;20646;-84
2023/01/21 08:25:48;;;;;;;20.97;10.97;;;-1.70;99.90;;;;;;5112827;28;20172;-85
2023/01/21 08:28:14;;;;;;;15.90;9.10;;;-1.70;99.90;;;;;;5111326;28;20751;-84
2023/01/21 08:30:39;;;;;;;17.50;9.10;;;-1.70;99.90;;;;;;5111890;28;20175;-88
2023/01/21 08:33:05;;;;;;;18.03;9.60;;;-1.70;99.90;;;;;;5113846;28;20221;-82
2023/01/21 08:35:30;;;;;;;18.87;10.17;;;-1.70;99.90;;;;;;5111461;28;20700;-83
2023/01/21 08:37:56;;;;;;;18.57;9.40;;;-1.80;99.90;;;;;;5103730;28;20270;-85
2023/01/21 08:40:24;;;;;;;18.00;9.00;;;-1.80;99.90;;;;;;5110907;28;20176;-83
2023/01/21 08:42:50;;;;;;;17.93;9.53;;;-1.70;99.90;;;;;;5111060;28;20569;-83
2023/01/21 08:45:15;;;;;;;18.20;10.20;;;-1.80;99.90;;;;;;5111205;28;20176;-83
2023/01/21 08:47:41;;;;;;;15.93;8.63;;;-1.80;99.90;;;;;;5112527;28;20191;-83
2023/01/21 08:50:08;;;;;;;19.23;10.10;;;-1.70;99.90;;;;;;5112143;28;20195;-84
2023/01/21 08:52:34;;;;;;;16.87;9.90;;;-1.80;99.90;;;;;;5112538;28;20172;-84
2023/01/21 08:54:59;;;;;;;18.90;10.10;;;-1.80;99.90;;;;;;5111469;28;20176;-82
2023/01/21 08:57:26;;;;;;;19.13;10.33;;;-1.80;99.90;;;;;;5111111;28;20180;-84
2023/01/21 08:59:51;;;;;;;19.47;10.40;;;-1.80;99.90;;;;;;5111081;28;20741;-85
2023/01/21 09:02:17;;;;;;;19.73;11.03;;;-1.70;99.90;;;;;;5111145;28;20164;-84
2023/01/21 09:04:43;;;;;;;17.60;9.80;;;-1.70;99.90;;;;;;5112766;28;20172;-83
2023/01/21 09:07:08;;;;;;;16.60;9.27;;;-1.70;99.90;;;;;;5112266;28;20175;-85
2023/01/21 09:09:34;;;;;;;16.00;10.13;;;-1.70;99.90;;;;;;5111127;28;20223;-82
2023/01/21 09:11:59;;;;;;;18.60;9.77;;;-1.70;99.90;;;;;;5111129;28;20177;-85
2023/01/21 09:14:26;;;;;;;18.00;9.83;;;-1.70;99.90;;;;;;5110940;28;20168;-84
2023/01/21 09:16:54;;;;;;;15.10;9.47;;;-1.60;99.90;;;;;;5111055;28;20659;-85
2023/01/21 09:19:20;;;;;;;16.67;8.67;;;-1.60;99.90;;;;;;5110601;28;20212;-85
2023/01/21 09:21:45;;;;;;;18.73;10.07;;;-1.60;99.90;;;;;;5112542;28;20669;-85
2023/01/21 09:24:11;;;;;;;18.10;12.70;;;-1.60;99.90;;;;;;5110846;28;20219;-85
2023/01/21 09:26:42;;;;;;;19.30;11.10;;;-1.60;99.90;;;;;;5113938;28;20217;-85
2023/01/21 09:29:08;;;;;;;18.90;10.17;;;-1.60;99.90;;;;;;5115025;28;20204;-86
2023/01/21 09:31:34;;;;;;;14.87;9.10;;;-1.60;99.90;;;;;;5115497;28;20182;-85
2023/01/21 09:34:02;;;;;;;18.27;9.40;;;-1.60;99.90;;;;;;5114788;28;20177;-86
2023/01/21 09:36:31;;;;;;;20.43;10.33;;;-1.60;99.90;;;;;;5113188;28;20180;-86
2023/01/21 09:38:57;;;;;;;19.43;10.17;;;-1.60;99.90;;;;;;5116386;28;20282;-85
2023/01/21 09:41:32;;;;;;;16.90;9.37;;;-1.50;99.90;;;;;;5115222;28;20180;-86
2023/01/21 09:44:10;;;;;;;15.83;9.40;;;-1.40;99.90;;;;;;5114292;28;20175;-84
2023/01/21 09:46:51;;;;;;;16.40;9.10;;;-1.50;99.90;;;;;;5115979;28;20222;-85
2023/01/21 09:49:40;;;;;;;18.70;10.03;;;-1.50;99.90;;;;;;5115836;28;20195;-85
2023/01/21 09:52:06;;;;;;;17.10;9.60;;;-1.60;99.90;;;;;;5116122;28;20703;-86
2023/01/21 09:54:32;;;;;;;15.07;8.93;;;-1.50;99.90;;;;;;5115621;28;20168;-86
2023/01/21 09:57:33;;;;;;;18.77;9.77;;;-1.40;99.90;;;;;;5114301;28;20176;-87
2023/01/21 10:00:26;;;;;;;25.10;16.23;;;-1.30;99.90;;;;;;5113540;28;20203;-85
2023/01/21 10:03:23;;;;;;;18.47;10.03;;;-1.30;99.90;;;;;;5114588;28;20653;-85
2023/01/21 10:05:52;;;;;;;17.50;9.60;;;-1.40;99.90;;;;;;5117198;28;20175;-83
2023/01/21 10:08:26;;;;;;;34.57;22.13;;;-1.30;99.90;;;;;;5115496;28;20226;-84
2023/01/21 10:11:02;;;;;;;17.00;9.53;;;-1.30;99.90;;;;;;5115227;28;20175;-84
2023/01/21 10:13:39;;;;;;;16.00;9.13;;;-1.20;99.90;;;;;;5116355;28;20167;-85
2023/01/21 10:16:16;;;;;;;15.57;8.43;;;-1.20;99.90;;;;;;5116989;28;20159;-83
2023/01/21 10:18:46;;;;;;;15.67;8.63;;;-1.20;99.90;;;;;;5114484;28;20342;-85
2023/01/21 10:21:17;;;;;;;16.07;8.57;;;-1.20;99.90;;;;;;5115215;28;20177;-85
2023/01/21 10:23:48;;;;;;;14.60;8.40;;;-1.20;99.90;;;;;;5113707;28;20551;-84
2023/01/21 10:26:14;;;;;;;16.73;8.93;;;-1.20;99.90;;;;;;5114352;28;20164;-86
2023/01/21 10:28:46;;;;;;;15.00;8.50;;;-1.40;99.90;;;;;;5113980;28;20575;-83
2023/01/21 10:31:25;;;;;;;17.53;9.17;;;-1.40;99.90;;;;;;5114581;28;20172;-83
2023/01/21 10:33:51;;;;;;;19.23;9.80;;;-1.40;99.90;;;;;;5114930;28;20228;-83
2023/01/21 10:36:41;;;;;;;16.70;9.37;;;-1.40;99.90;;;;;;5114415;28;20167;-84
2023/01/21 10:39:24;;;;;;;17.97;9.87;;;-1.30;99.90;;;;;;5113670;28;20253;-84
2023/01/21 10:41:58;;;;;;;14.57;9.43;;;-1.30;99.90;;;;;;5115618;28;20168;-84
2023/01/21 10:44:31;;;;;;;18.47;9.97;;;-1.40;99.90;;;;;;5114516;28;20300;-83
2023/01/21 10:47:20;;;;;;;17.97;8.90;;;-1.30;99.90;;;;;;5115822;28;20160;-83
2023/01/21 10:49:59;;;;;;;14.90;8.40;;;-1.30;99.90;;;;;;5114757;28;20570;-81
2023/01/21 10:52:53;;;;;;;19.03;9.57;;;-1.40;99.90;;;;;;5115060;28;20168;-84
2023/01/21 10:55:42;;;;;;;16.93;8.23;;;-1.40;99.90;;;;;;5091429;28;20180;-83
2023/01/21 10:58:29;;;;;;;15.40;8.40;;;-1.40;99.90;;;;;;5112548;28;20208;-84
2023/01/21 11:00:59;;;;;;;18.53;9.40;;;-1.40;99.90;;;;;;5108645;28;20173;-84
2023/01/21 11:03:34;;;;;;;18.47;8.87;;;-1.40;99.90;;;;;;5113507;28;20187;-83
2023/01/21 11:06:03;;;;;;;18.03;10.60;;;-1.30;99.90;;;;;;5111019;28;20225;-83
2023/01/21 11:08:29;;;;;;;19.60;9.33;;;-1.30;99.90;;;;;;5112508;28;20196;-82
2023/01/21 11:10:56;;;;;;;17.07;8.30;;;-1.30;99.90;;;;;;5112325;28;20175;-85
2023/01/21 11:13:22;;;;;;;17.30;9.07;;;-1.20;99.90;;;;;;5112387;28;20176;-83
2023/01/21 11:15:53;;;;;;;16.10;8.60;;;-1.20;99.90;;;;;;5113659;28;20164;-83
2023/01/21 11:18:34;;;;;;;17.37;7.60;;;-1.10;99.90;;;;;;5112161;28;20204;-83
2023/01/21 11:21:03;;;;;;;477.93;269.37;;;-1.00;99.90;;;;;;5112203;28;20181;-86
2023/01/21 11:23:30;;;;;;;867.93;492.50;;;2.10;99.90;;;;;;5112051;28;20174;-85
2023/01/21 11:26:05;;;;;;;15.87;10.97;;;4.50;99.90;;;;;;5112311;28;20582;-84
2023/01/21 11:28:31;;;;;;;42.13;23.07;;;3.00;99.90;;;;;;5111824;28;20274;-87
2023/01/21 11:31:23;;;;;;;13.67;8.93;;;2.60;99.90;;;;;;5113084;28;20194;-88
2023/01/21 11:33:49;;;;;;;15.20;8.67;;;2.20;99.90;;;;;;5114750;28;20175;-87
2023/01/21 11:36:17;;;;;;;13.47;7.57;;;2.30;99.90;;;;;;5116933;27;20163;-86
2023/01/21 11:38:49;;;;;;;13.53;7.13;;;1.90;99.90;;;;;;5115212;28;20730;-86
2023/01/21 11:41:21;;;;;;;14.67;7.70;;;1.50;99.90;;;;;;5111761;28;20164;-87
2023/01/21 11:44:05;;;;;;;13.17;7.93;;;1.10;99.90;;;;;;5112057;28;20168;-87
2023/01/21 11:46:39;;;;;;;43.97;23.17;;;0.70;99.90;;;;;;5113798;28;20174;-83
2023/01/21 11:49:04;;;;;;;271.13;151.67;;;0.70;99.90;;;;;;5112574;28;20230;-85
2023/01/21 11:51:30;;;;;;;24.17;14.40;;;4.10;99.90;;;;;;5111534;28;20287;-85
2023/01/21 11:54:07;;;;;;;47.97;30.00;;;5.00;99.90;;;;;;5111906;28;20200;-83
2023/01/21 11:56:34;;;;;;;11.13;7.30;;;6.80;99.90;;;;;;5113549;28;20184;-84
2023/01/21 11:59:00;;;;;;;10.03;6.60;;;4.70;99.90;;;;;;5112261;28;20206;-81
2023/01/21 12:01:26;;;;;;;10.27;6.60;;;3.40;99.90;;;;;;5113471;28;20182;-80
2023/01/21 12:03:55;;;;;;;11.27;7.60;;;2.60;99.90;;;;;;5113931;28;20260;-81
2023/01/21 12:06:31;;;;;;;13.53;8.33;;;1.90;99.90;;;;;;5119564;28;20176;-80
2023/01/21 12:09:01;;;;;;;12.53;7.47;;;1.40;99.90;;;;;;5116801;28;20282;-81
2023/01/21 12:11:28;;;;;;;12.30;7.27;;;1.10;99.90;;;;;;5116196;28;20203;-80
2023/01/21 12:14:22;;;;;;;12.30;7.30;;;1.00;99.90;;;;;;5112082;28;20173;-81
2023/01/21 12:17:18;;;;;;;11.77;7.80;;;0.90;99.90;;;;;;5112567;28;20217;-81
2023/01/21 12:19:57;;;;;;;10.50;7.03;;;0.70;99.90;;;;;;5111642;28;20212;-81
2023/01/21 12:22:55;;;;;;;12.43;7.70;;;0.60;99.90;;;;;;5112137;28;20169;-81
2023/01/21 12:25:37;;;;;;;9.47;6.30;;;0.70;99.90;;;;;;5113378;28;20167;-81
2023/01/21 12:28:38;;;;;;;15.20;10.47;;;0.70;99.90;;;;;;5111716;28;20336;-80
2023/01/21 12:31:31;;;;;;;11.67;6.87;;;0.70;99.90;;;;;;5090491;28;20313;-81
2023/01/21 12:34:37;;;;;;;12.57;6.70;;;0.70;99.90;;;;;;5111162;28;20186;-81
2023/01/21 12:37:25;;;;;;;12.90;7.10;;;0.70;99.90;;;;;;5111862;28;20170;-80
2023/01/21 12:39:54;;;;;;;14.10;7.40;;;0.70;99.90;;;;;;5111716;28;20205;-80
2023/01/21 12:42:23;;;;;;;12.13;7.60;;;0.60;99.90;;;;;;5111795;28;20189;-80
2023/01/21 12:45:08;;;;;;;12.33;7.17;;;0.60;99.90;;;;;;5112690;28;20168;-82
2023/01/21 12:47:55;;;;;;;12.97;8.50;;;0.60;99.90;;;;;;5113489;28;20168;-80
2023/01/21 12:50:28;;;;;;;12.10;7.17;;;0.50;99.90;;;;;;5111850;28;20160;-80
2023/01/21 12:53:08;;;;;;;11.20;6.47;;;0.50;99.90;;;;;;5111760;28;20174;-80